Terminal Aerodrome Forecast
Issued by NWS

Home | Current Version | Previous Version | Text Only | Print | Product List | Glossary On
Versions: 1 2 3 4 5 6 7 8 9 10 11 12
000
FTUS46 KLOX 042339
TAFSBA
TAF
KSBA 042339Z 0500/0524 26013KT P6SM SCT200
     FM050200 31007KT P6SM SCT200 WS010/34030KT
     FM050700 VRB03KT P6SM SCT200
     FM051700 15007KT P6SM SCT200
     FM052100 25012KT P6SM SCT200=

USA.gov is the U.S. government's official web portal to all federal, state and local government web resources and services.